createdAt,value
2019-01-27T00:00:39.351Z,71.40
2019-01-27T00:01:45.350Z,71.70
2019-01-27T00:02:51.352Z,73.02
2019-01-27T00:03:57.498Z,71.10
2019-01-27T00:05:03.431Z,70.35
2019-01-27T00:06:10.058Z,70.65
2019-01-27T00:07:17.158Z,69.65
2019-01-27T00:08:23.257Z,69.70
2019-01-27T00:09:29.239Z,75.57
2019-01-27T00:10:35.406Z,71.60
2019-01-27T00:11:41.496Z,74.82
2019-01-27T00:12:47.387Z,71.60
2019-01-27T00:13:53.882Z,71.65
2019-01-27T00:14:59.964Z,73.33
2019-01-27T00:16:06.625Z,72.87
2019-01-27T00:17:12.669Z,71.15
2019-01-27T00:18:18.819Z,73.02
2019-01-27T00:19:24.886Z,75.32
2019-01-27T00:20:31.151Z,73.30
2019-01-27T00:21:37.175Z,75.95
2019-01-27T00:22:43.258Z,75.42
2019-01-27T00:23:49.283Z,74.80
2019-01-27T00:24:55.459Z,73.02
2019-01-27T00:26:02.030Z,74.40
2019-01-27T00:27:07.980Z,76.17
2019-01-27T00:28:14.479Z,76.47
2019-01-27T00:29:20.666Z,74.85
2019-01-27T00:30:26.878Z,75.08
2019-01-27T00:31:32.879Z,75.42
2019-01-27T00:32:38.946Z,77.20
2019-01-27T00:33:47.710Z,78.83
2019-01-27T00:34:54.057Z,79.72
2019-01-27T00:36:00.007Z,78.67
2019-01-27T00:37:06.105Z,77.78
2019-01-27T00:38:12.015Z,73.35
2019-01-27T00:39:17.990Z,76.65
2019-01-27T00:40:24.115Z,76.15
2019-01-27T00:41:30.653Z,77.47
2019-01-27T00:42:37.111Z,76.70
2019-01-27T00:43:43.323Z,77.32
2019-01-27T00:44:49.518Z,77.90
2019-01-27T00:45:55.696Z,77.42
2019-01-27T00:47:01.571Z,78.20
2019-01-27T00:48:07.810Z,78.55
2019-01-27T00:49:13.767Z,79.15
2019-01-27T00:50:19.939Z,80.75
2019-01-27T00:51:25.994Z,78.17
2019-01-27T00:52:32.557Z,82.08
2019-01-27T00:53:38.529Z,78.15
2019-01-27T00:54:44.526Z,81.28
2019-01-27T00:55:50.900Z,79.15
2019-01-27T00:56:56.875Z,77.10
2019-01-27T00:58:02.815Z,80.15
2019-01-27T00:59:08.985Z,80.70
2019-01-27T01:00:18.783Z,79.27
2019-01-27T01:01:24.727Z,80.32
2019-01-27T01:02:30.676Z,80.03
2019-01-27T01:03:36.762Z,83.10
2019-01-27T01:04:42.615Z,81.02
2019-01-27T01:05:48.539Z,78.65
2019-01-27T01:06:54.577Z,80.85
2019-01-27T01:08:00.609Z,82.67
2019-01-27T01:09:11.189Z,79.17
2019-01-27T01:10:19.469Z,76.45
2019-01-27T01:11:25.526Z,75.03
2019-01-27T01:12:31.402Z,78.45
2019-01-27T01:13:37.305Z,77.27
2019-01-27T01:14:43.288Z,76.42
2019-01-27T01:15:49.436Z,76.12
2019-01-27T01:16:55.556Z,74.62
2019-01-27T01:18:01.661Z,74.35
2019-01-27T01:19:08.067Z,73.83
2019-01-27T01:20:16.895Z,74.05
2019-01-27T01:21:23.051Z,75.65
2019-01-27T01:22:29.177Z,72.58
2019-01-27T01:23:35.250Z,75.05
2019-01-27T01:24:41.195Z,71.60
2019-01-27T01:25:48.254Z,74.17
2019-01-27T01:26:54.499Z,72.03
2019-01-27T01:28:00.646Z,72.27
2019-01-27T01:29:06.745Z,72.58
2019-01-27T01:30:14.890Z,74.82
2019-01-27T01:31:20.870Z,73.95
2019-01-27T01:32:26.999Z,75.03
2019-01-27T01:33:33.034Z,76.70
2019-01-27T01:34:39.269Z,71.57
2019-01-27T01:35:45.362Z,73.33
2019-01-27T01:36:51.791Z,73.30
2019-01-27T01:37:58.340Z,72.37
2019-01-27T01:39:08.524Z,73.62
2019-01-27T01:40:16.903Z,70.42
2019-01-27T01:41:22.896Z,73.83
2019-01-27T01:42:28.885Z,72.12
2019-01-27T01:43:34.975Z,72.90
2019-01-27T01:44:41.099Z,74.25
2019-01-27T01:45:47.400Z,75.35
2019-01-27T01:46:53.351Z,74.27
2019-01-27T01:47:59.437Z,75.25
2019-01-27T01:49:05.443Z,71.57
2019-01-27T01:50:11.507Z,74.60
2019-01-27T01:51:17.450Z,71.12
2019-01-27T01:52:23.475Z,71.82
2019-01-27T01:53:29.559Z,73.90
2019-01-27T01:54:36.005Z,75.67
2019-01-27T01:55:42.046Z,72.87
2019-01-27T01:56:48.221Z,72.70
2019-01-27T01:57:54.682Z,70.28
2019-01-27T01:59:00.616Z,72.53
2019-01-27T02:00:08.917Z,76.72
2019-01-27T02:01:14.998Z,76.57
2019-01-27T02:02:20.977Z,73.25
2019-01-27T02:03:26.897Z,76.33
2019-01-27T02:04:33.358Z,77.58
2019-01-27T02:05:40.327Z,73.97
2019-01-27T02:06:46.311Z,74.30
2019-01-27T02:07:52.427Z,74.27
2019-01-27T02:08:58.428Z,70.80
2019-01-27T02:10:05.159Z,75.28
2019-01-27T02:11:11.178Z,74.55
2019-01-27T02:12:17.350Z,73.55
2019-01-27T02:13:23.392Z,75.37
2019-01-27T02:14:29.407Z,73.50
2019-01-27T02:16:04.263Z,75.17
2019-01-27T02:17:10.331Z,74.03
2019-01-27T02:18:16.417Z,73.65
2019-01-27T02:19:22.466Z,73.45
2019-01-27T02:20:28.820Z,74.60
2019-01-27T02:21:35.509Z,73.83
2019-01-27T02:22:41.547Z,73.10
2019-01-27T02:23:47.527Z,73.90
2019-01-27T02:24:53.497Z,76.55
2019-01-27T02:26:00.074Z,76.10
2019-01-27T02:27:06.459Z,74.45
2019-01-27T02:28:12.633Z,74.32
2019-01-27T02:29:18.568Z,74.67
2019-01-27T02:30:25.319Z,72.42
2019-01-27T02:31:31.229Z,70.32
2019-01-27T02:32:37.257Z,74.50
2019-01-27T02:33:43.459Z,72.15
2019-01-27T02:34:49.486Z,71.40
2019-01-27T02:35:55.605Z,74.32
2019-01-27T02:37:01.584Z,70.37
2019-01-27T02:38:07.555Z,70.90
2019-01-27T02:39:13.530Z,70.83
2019-01-27T02:40:19.687Z,68.65
2019-01-27T02:41:25.624Z,73.37
2019-01-27T02:42:31.598Z,70.95
2019-01-27T02:43:37.609Z,68.55
2019-01-27T02:44:43.633Z,67.97
2019-01-27T02:45:49.727Z,71.00
2019-01-27T02:46:55.696Z,69.72
2019-01-27T02:48:01.625Z,65.80
2019-01-27T02:49:07.862Z,67.78
2019-01-27T02:50:14.145Z,69.72
2019-01-27T02:51:19.974Z,73.15
2019-01-27T02:52:25.996Z,70.22
2019-01-27T02:53:32.116Z,68.80
2019-01-27T02:54:38.017Z,69.03
2019-01-27T02:55:44.086Z,67.50
2019-01-27T02:56:49.943Z,66.10
2019-01-27T02:57:55.966Z,67.00
2019-01-27T02:59:01.837Z,67.92
2019-01-27T03:00:09.599Z,69.03
2019-01-27T03:01:15.512Z,67.10
2019-01-27T03:02:21.510Z,68.47
2019-01-27T03:03:27.466Z,65.65
2019-01-27T03:04:33.326Z,66.40
2019-01-27T03:05:58.172Z,67.00
2019-01-27T03:07:14.256Z,65.97
2019-01-27T03:08:20.279Z,64.17
2019-01-27T03:09:43.563Z,65.03
2019-01-27T03:10:50.283Z,64.03
2019-01-27T03:11:56.196Z,67.50
2019-01-27T03:13:02.178Z,67.12
2019-01-27T03:14:08.209Z,67.62
2019-01-27T03:15:15.966Z,65.05
2019-01-27T03:16:21.947Z,66.60
2019-01-27T03:17:27.978Z,67.87
2019-01-27T03:18:33.963Z,67.15
2019-01-27T03:19:39.918Z,68.17
2019-01-27T03:20:45.885Z,65.15
2019-01-27T03:21:52.170Z,68.52
2019-01-27T03:22:59.395Z,69.12
2019-01-27T03:24:06.574Z,67.78
2019-01-27T03:25:13.126Z,63.75
2019-01-27T03:26:20.080Z,67.92
2019-01-27T03:27:26.021Z,68.10
2019-01-27T03:28:32.002Z,68.17
2019-01-27T03:29:37.960Z,66.53
2019-01-27T03:30:44.003Z,67.45
2019-01-27T03:31:49.998Z,64.40
2019-01-27T03:32:55.970Z,67.72
2019-01-27T03:34:01.901Z,67.85
2019-01-27T03:35:09.611Z,68.92
2019-01-27T03:36:15.777Z,65.97
2019-01-27T03:37:22.847Z,67.27
2019-01-27T03:38:28.947Z,68.62
2019-01-27T03:39:34.928Z,66.47
2019-01-27T03:40:41.247Z,68.20
2019-01-27T03:41:47.326Z,68.85
2019-01-27T03:42:53.477Z,69.60
2019-01-27T03:43:59.614Z,68.67
2019-01-27T03:45:06.601Z,66.77
2019-01-27T03:46:12.888Z,64.72
2019-01-27T03:47:18.755Z,69.15
2019-01-27T03:48:24.801Z,68.17
2019-01-27T03:49:30.855Z,68.52
2019-01-27T03:50:36.827Z,66.67
2019-01-27T03:51:42.968Z,63.92
2019-01-27T03:52:49.091Z,68.05
2019-01-27T03:53:55.150Z,65.25
2019-01-27T03:55:01.260Z,68.00
2019-01-27T03:56:07.404Z,68.28
2019-01-27T03:57:13.412Z,66.65
2019-01-27T03:58:19.347Z,65.83
2019-01-27T03:59:26.842Z,63.42
2019-01-27T04:00:32.726Z,67.62
2019-01-27T04:01:38.871Z,67.10
2019-01-27T04:02:45.055Z,70.52
2019-01-27T04:03:51.140Z,69.82
2019-01-27T04:04:57.059Z,66.53
2019-01-27T04:06:03.223Z,67.47
2019-01-27T04:07:09.367Z,66.62
2019-01-27T04:08:15.413Z,66.47
2019-01-27T04:09:21.518Z,66.05
2019-01-27T04:10:28.552Z,64.45
2019-01-27T04:11:34.548Z,65.72
2019-01-27T04:12:40.627Z,67.72
2019-01-27T04:13:46.711Z,65.50
2019-01-27T04:14:53.771Z,67.62
2019-01-27T04:15:59.944Z,67.65
2019-01-27T04:17:06.082Z,64.35
2019-01-27T04:18:12.196Z,66.25
2019-01-27T04:19:18.307Z,64.70
2019-01-27T04:20:25.132Z,65.57
2019-01-27T04:21:31.241Z,65.95
2019-01-27T04:22:37.492Z,65.60
2019-01-27T04:23:43.838Z,63.85
2019-01-27T04:24:50.280Z,65.52
2019-01-27T04:25:56.092Z,61.42
2019-01-27T04:27:02.484Z,64.55
2019-01-27T04:28:08.546Z,63.02
2019-01-27T04:29:14.853Z,62.78
2019-01-27T04:30:41.805Z,64.87
2019-01-27T04:31:47.715Z,62.23
2019-01-27T04:32:53.750Z,63.65
2019-01-27T04:34:00.239Z,61.65
2019-01-27T04:35:08.189Z,62.25
2019-01-27T04:36:14.576Z,62.70
2019-01-27T04:37:21.415Z,64.45
2019-01-27T04:38:27.414Z,62.62
2019-01-27T04:39:33.316Z,62.43
2019-01-27T04:40:39.731Z,62.17
2019-01-27T04:41:45.714Z,63.35
2019-01-27T04:42:51.888Z,64.47
2019-01-27T04:43:57.943Z,64.50
2019-01-27T04:45:04.191Z,64.22
2019-01-27T04:46:10.128Z,65.70
2019-01-27T04:47:16.150Z,62.90
2019-01-27T04:48:22.119Z,62.98
2019-01-27T04:49:28.558Z,65.62
2019-01-27T04:50:34.809Z,64.82
2019-01-27T04:51:40.910Z,65.15
2019-01-27T04:52:47.086Z,63.17
2019-01-27T04:53:53.062Z,65.47
2019-01-27T04:54:59.043Z,64.82
2019-01-27T04:56:05.044Z,61.80
2019-01-27T04:57:10.939Z,64.77
2019-01-27T04:58:16.899Z,64.53
2019-01-27T04:59:24.074Z,68.07
2019-01-27T05:00:30.196Z,65.65
2019-01-27T05:01:36.300Z,65.85
2019-01-27T05:02:46.759Z,65.32
2019-01-27T05:04:16.395Z,64.27
2019-01-27T05:05:22.511Z,60.73
2019-01-27T05:06:30.077Z,64.15
2019-01-27T05:07:36.005Z,64.70
2019-01-27T05:08:42.418Z,65.20
2019-01-27T05:09:48.388Z,63.35
2019-01-27T05:10:54.753Z,63.65
2019-01-27T05:12:00.683Z,62.08
2019-01-27T05:13:07.067Z,65.28
2019-01-27T05:14:12.941Z,65.97
2019-01-27T05:15:20.764Z,67.40
2019-01-27T05:16:26.725Z,60.50
2019-01-27T05:17:32.644Z,65.83
2019-01-27T05:18:38.553Z,68.55
2019-01-27T05:19:44.427Z,67.10
2019-01-27T05:20:50.357Z,61.48
2019-01-27T05:21:56.488Z,64.77
2019-01-27T05:23:02.997Z,65.97
2019-01-27T05:24:09.088Z,63.05
2019-01-27T05:25:15.710Z,63.65
2019-01-27T05:26:23.409Z,65.95
2019-01-27T05:27:29.351Z,64.97
2019-01-27T05:28:35.859Z,65.22
2019-01-27T05:29:42.020Z,65.50
2019-01-27T05:30:48.190Z,62.93
2019-01-27T05:31:55.379Z,62.85
2019-01-27T05:33:01.384Z,65.47
2019-01-27T05:34:07.339Z,65.00
2019-01-27T05:35:13.402Z,60.58
2019-01-27T05:36:19.348Z,60.83
2019-01-27T05:37:25.371Z,60.95
2019-01-27T05:38:31.255Z,57.98
2019-01-27T05:39:37.224Z,62.05
2019-01-27T05:40:43.271Z,63.75
2019-01-27T05:41:49.551Z,61.05
2019-01-27T05:42:55.873Z,60.73
2019-01-27T05:44:01.868Z,63.23
2019-01-27T05:45:09.946Z,59.48
2019-01-27T05:46:15.982Z,59.40
2019-01-27T05:47:21.998Z,57.88
2019-01-27T05:48:28.012Z,58.48
2019-01-27T05:49:34.075Z,58.42
2019-01-27T05:50:40.045Z,60.28
2019-01-27T05:51:45.921Z,60.35
2019-01-27T05:52:51.835Z,58.50
2019-01-27T05:53:58.079Z,59.55
2019-01-27T05:55:04.110Z,60.38
2019-01-27T05:56:10.052Z,58.68
2019-01-27T05:57:16.013Z,57.03
2019-01-27T05:58:22.003Z,58.65
2019-01-27T05:59:28.056Z,56.60
2019-01-27T06:00:45.048Z,57.05
2019-01-27T06:01:51.116Z,57.17
2019-01-27T06:02:57.056Z,57.17
2019-01-27T06:04:03.001Z,59.10
2019-01-27T06:05:09.350Z,57.85
2019-01-27T06:06:16.007Z,56.13
2019-01-27T06:07:21.835Z,56.80
2019-01-27T06:08:28.359Z,57.10
2019-01-27T06:09:34.295Z,60.38
2019-01-27T06:10:40.386Z,56.30
2019-01-27T06:11:46.484Z,54.60
2019-01-27T06:12:52.548Z,56.80
2019-01-27T06:13:58.528Z,54.80
2019-01-27T06:15:05.054Z,56.42
2019-01-27T06:16:11.538Z,58.75
2019-01-27T06:17:18.431Z,57.15
2019-01-27T06:18:24.618Z,58.10
2019-01-27T06:19:31.005Z,56.68
2019-01-27T06:20:37.284Z,58.00
2019-01-27T06:21:43.455Z,58.28
2019-01-27T06:22:49.595Z,59.18
2019-01-27T06:23:55.589Z,57.50
2019-01-27T06:25:02.524Z,57.17
2019-01-27T06:26:08.443Z,62.03
2019-01-27T06:27:14.528Z,57.80
2019-01-27T06:28:20.467Z,59.13
2019-01-27T06:29:26.500Z,58.13
2019-01-27T06:30:32.416Z,57.73
2019-01-27T06:31:38.406Z,58.52
2019-01-27T06:33:06.551Z,59.58
2019-01-27T06:34:18.577Z,58.95
2019-01-27T06:35:24.805Z,57.20
2019-01-27T06:36:31.275Z,58.60
2019-01-27T06:37:37.191Z,62.40
2019-01-27T06:38:43.990Z,59.95
2019-01-27T06:39:49.958Z,63.23
2019-01-27T06:40:55.995Z,63.83
2019-01-27T06:42:02.319Z,64.20
2019-01-27T06:43:08.281Z,61.68
2019-01-27T06:44:14.319Z,62.13
2019-01-27T06:45:20.292Z,59.00
2019-01-27T06:46:26.663Z,61.10
2019-01-27T06:47:32.678Z,64.37
2019-01-27T06:48:39.046Z,65.32
2019-01-27T06:49:45.041Z,63.05
2019-01-27T06:50:50.976Z,63.98
2019-01-27T06:51:58.917Z,61.88
2019-01-27T06:53:04.966Z,60.28
2019-01-27T06:54:10.951Z,63.42
2019-01-27T06:55:17.394Z,63.33
2019-01-27T06:56:23.337Z,64.35
2019-01-27T06:57:29.374Z,66.45
2019-01-27T06:58:52.874Z,62.62
2019-01-27T07:00:10.684Z,64.07
2019-01-27T07:01:32.658Z,64.50
2019-01-27T07:02:43.680Z,62.83
2019-01-27T07:04:05.416Z,67.85
2019-01-27T07:05:31.856Z,67.70
2019-01-27T07:06:45.208Z,65.72
2019-01-27T07:08:13.027Z,65.83
2019-01-27T07:09:43.765Z,63.55
2019-01-27T07:11:11.481Z,61.48
2019-01-27T07:12:26.170Z,61.28
2019-01-27T07:13:57.060Z,67.45
2019-01-27T07:15:24.869Z,66.90
2019-01-27T07:16:52.719Z,68.92
2019-01-27T07:18:19.761Z,70.08
2019-01-27T07:19:44.686Z,66.17
2019-01-27T07:21:08.213Z,67.35
2019-01-27T07:22:35.914Z,66.37
2019-01-27T07:23:59.463Z,70.50
2019-01-27T07:25:24.778Z,69.00
2019-01-27T07:26:37.692Z,70.10
2019-01-27T07:28:17.748Z,68.75
2019-01-27T07:29:33.996Z,66.05
2019-01-27T07:30:51.113Z,71.30
2019-01-27T07:32:20.677Z,71.37
2019-01-27T07:33:39.125Z,71.35
2019-01-27T07:35:06.879Z,73.07
2019-01-27T07:36:30.126Z,70.03
2019-01-27T07:37:57.843Z,71.50
2019-01-27T07:39:22.570Z,70.20
2019-01-27T07:40:46.171Z,73.05
2019-01-27T07:42:14.022Z,66.45
2019-01-27T07:43:33.914Z,66.35
2019-01-27T07:44:51.752Z,70.80
2019-01-27T07:46:25.631Z,69.45
2019-01-27T07:47:42.046Z,71.72
2019-01-27T07:49:19.928Z,73.70
2019-01-27T07:50:49.551Z,70.72
2019-01-27T07:52:13.918Z,68.07
2019-01-27T07:53:30.293Z,70.15
2019-01-27T07:55:07.323Z,72.45
2019-01-27T07:56:28.793Z,74.15
2019-01-27T07:58:01.454Z,74.62
2019-01-27T07:59:22.579Z,71.77
2019-01-27T08:00:56.802Z,74.30
2019-01-27T08:02:21.718Z,71.22
2019-01-27T08:03:42.342Z,71.10
2019-01-27T08:04:57.883Z,73.65
2019-01-27T08:06:15.549Z,72.50
2019-01-27T08:07:40.711Z,69.82
2019-01-27T08:09:02.359Z,69.05
2019-01-27T08:10:30.010Z,76.97
2019-01-27T08:11:55.005Z,74.15
2019-01-27T08:13:32.191Z,78.17
2019-01-27T08:15:03.193Z,71.47
2019-01-27T08:16:29.162Z,74.32
2019-01-27T08:17:57.250Z,74.50
2019-01-27T08:19:31.514Z,71.97
2019-01-27T08:21:08.763Z,70.55
2019-01-27T08:22:46.520Z,70.37
2019-01-27T08:24:23.689Z,89.15
2019-01-27T08:25:51.942Z,70.00
2019-01-27T08:27:25.997Z,73.00
2019-01-27T08:28:50.956Z,69.45
2019-01-27T08:30:22.536Z,74.20
2019-01-27T08:31:42.155Z,73.85
2019-01-27T08:33:16.099Z,75.87
2019-01-27T08:34:36.185Z,72.87
2019-01-27T08:36:07.623Z,75.35
2019-01-27T08:37:38.919Z,71.33
2019-01-27T08:39:10.585Z,71.60
2019-01-27T08:40:25.390Z,73.35
2019-01-27T08:41:49.137Z,71.67
2019-01-27T08:43:10.036Z,70.90
2019-01-27T08:44:38.666Z,72.97
2019-01-27T08:46:02.029Z,74.00
2019-01-27T08:47:08.205Z,72.40
2019-01-27T08:48:14.655Z,74.45
2019-01-27T08:49:22.853Z,70.78
2019-01-27T08:50:29.432Z,73.52
2019-01-27T08:51:36.545Z,73.15
2019-01-27T08:52:42.913Z,67.72
2019-01-27T08:53:49.804Z,88.78
2019-01-27T08:54:56.183Z,78.25
2019-01-27T08:56:02.681Z,70.20
2019-01-27T08:57:09.121Z,74.00
2019-01-27T08:58:15.035Z,84.30
2019-01-27T08:59:21.137Z,90.20
2019-01-27T09:00:36.513Z,75.75
2019-01-27T09:02:12.112Z,71.47
2019-01-27T09:03:28.012Z,72.10
2019-01-27T09:04:52.906Z,70.67
2019-01-27T09:06:17.106Z,68.07
2019-01-27T09:07:40.568Z,66.42
2019-01-27T09:09:12.557Z,70.92
2019-01-27T09:10:40.731Z,70.28
2019-01-27T09:12:18.458Z,68.20
2019-01-27T09:13:55.962Z,71.35
2019-01-27T09:15:26.866Z,70.17
2019-01-27T09:16:58.580Z,68.02
2019-01-27T09:18:22.991Z,71.47
2019-01-27T09:19:56.546Z,70.12
2019-01-27T09:21:24.296Z,71.80
2019-01-27T09:22:50.572Z,69.27
2019-01-27T09:24:31.070Z,68.60
2019-01-27T09:25:55.325Z,71.37
2019-01-27T09:27:20.314Z,68.97
2019-01-27T09:28:31.597Z,67.17
2019-01-27T09:29:51.729Z,70.50
2019-01-27T09:31:19.584Z,70.42
2019-01-27T09:32:52.890Z,70.12
2019-01-27T09:34:21.446Z,70.72
2019-01-27T09:35:43.634Z,69.87
2019-01-27T09:37:06.208Z,67.47
2019-01-27T09:38:33.077Z,72.72
2019-01-27T09:39:54.781Z,69.80
2019-01-27T09:41:10.201Z,66.70
2019-01-27T09:42:34.151Z,69.27
2019-01-27T09:44:05.374Z,65.03
2019-01-27T09:45:30.057Z,78.22
2019-01-27T09:46:55.548Z,72.20
2019-01-27T09:48:13.486Z,70.12
2019-01-27T09:49:33.300Z,68.97
2019-01-27T09:51:01.631Z,68.17
2019-01-27T09:52:13.553Z,69.45
2019-01-27T09:53:38.537Z,70.37
2019-01-27T09:54:51.499Z,71.17
2019-01-27T09:56:26.535Z,70.62
2019-01-27T09:57:42.939Z,71.45
2019-01-27T09:58:55.790Z,72.60
2019-01-27T10:00:09.570Z,79.35
2019-01-27T10:01:34.657Z,71.62
2019-01-27T10:02:51.714Z,69.20
2019-01-27T10:04:05.365Z,71.53
2019-01-27T10:05:32.138Z,71.40
2019-01-27T10:07:00.629Z,68.50
2019-01-27T10:08:25.111Z,70.03
2019-01-27T10:09:50.210Z,69.12
2019-01-27T10:11:18.772Z,70.87
2019-01-27T10:12:46.691Z,66.72
2019-01-27T10:14:11.590Z,66.77
2019-01-27T10:15:29.639Z,69.10
2019-01-27T10:17:12.999Z,69.70
2019-01-27T10:18:29.780Z,71.65
2019-01-27T10:19:57.774Z,68.70
2019-01-27T10:21:17.845Z,71.42
2019-01-27T10:22:32.362Z,71.60
2019-01-27T10:24:09.104Z,72.22
2019-01-27T10:25:34.154Z,72.50
2019-01-27T10:26:57.726Z,71.45
2019-01-27T10:28:22.741Z,67.08
2019-01-27T10:29:39.278Z,71.87
2019-01-27T10:30:51.490Z,69.15
2019-01-27T10:32:14.927Z,73.47
2019-01-27T10:33:46.122Z,65.47
2019-01-27T10:35:09.582Z,64.53
2019-01-27T10:36:34.507Z,64.37
2019-01-27T10:37:53.072Z,63.17
2019-01-27T10:39:12.867Z,64.32
2019-01-27T10:40:39.709Z,63.95
2019-01-27T10:41:59.725Z,63.50
2019-01-27T10:43:11.852Z,65.17
2019-01-27T10:44:46.381Z,61.75
2019-01-27T10:46:10.322Z,62.00
2019-01-27T10:47:37.267Z,64.87
2019-01-27T10:49:05.200Z,62.48
2019-01-27T10:50:31.153Z,65.37
2019-01-27T10:51:59.590Z,63.30
2019-01-27T10:53:20.987Z,70.00
2019-01-27T10:54:42.585Z,98.70
2019-01-27T10:56:14.027Z,91.80
2019-01-27T10:57:26.756Z,77.67
2019-01-27T10:58:51.730Z,79.47
2019-01-27T11:00:15.896Z,78.85
2019-01-27T11:01:33.420Z,85.90
2019-01-27T11:03:01.818Z,94.67
2019-01-27T11:04:28.232Z,81.95
2019-01-27T11:05:53.488Z,74.65
2019-01-27T11:07:17.509Z,70.00
2019-01-27T11:08:41.378Z,74.95
2019-01-27T11:10:10.051Z,66.85
2019-01-27T11:11:44.879Z,69.95
2019-01-27T11:13:08.396Z,65.65
2019-01-27T11:14:33.694Z,65.45
2019-01-27T11:16:06.075Z,61.75
2019-01-27T11:17:26.041Z,68.37
2019-01-27T11:18:48.200Z,61.05
2019-01-27T11:20:25.420Z,62.50
2019-01-27T11:21:39.441Z,60.08
2019-01-27T11:23:04.846Z,58.63
2019-01-27T11:24:30.224Z,65.35
2019-01-27T11:26:00.682Z,59.20
2019-01-27T11:27:15.857Z,58.85
2019-01-27T11:28:44.522Z,61.75
2019-01-27T11:30:12.381Z,61.60
2019-01-27T11:31:37.646Z,62.62
2019-01-27T11:35:38.717Z,58.95
2019-01-27T11:37:25.593Z,56.53
2019-01-27T11:38:43.013Z,56.13
2019-01-27T11:40:13.119Z,57.40
2019-01-27T11:41:47.765Z,54.08
2019-01-27T11:43:19.447Z,54.60
2019-01-27T11:44:43.667Z,54.25
2019-01-27T11:46:18.567Z,55.08
2019-01-27T11:47:49.813Z,53.85
2019-01-27T11:49:16.434Z,54.65
2019-01-27T11:50:27.316Z,55.58
2019-01-27T11:51:55.646Z,53.75
2019-01-27T11:53:06.533Z,51.08
2019-01-27T11:54:13.419Z,54.42
2019-01-27T11:55:19.796Z,56.05
2019-01-27T11:56:29.548Z,52.45
2019-01-27T11:57:36.598Z,52.80
2019-01-27T11:58:43.001Z,53.75
2019-01-27T11:59:49.779Z,52.65
2019-01-27T12:00:59.716Z,54.70
2019-01-27T12:02:06.467Z,51.92
2019-01-27T12:03:13.042Z,52.10
2019-01-27T12:04:19.237Z,52.88
2019-01-27T12:05:26.007Z,53.20
2019-01-27T12:06:35.754Z,49.85
2019-01-27T12:07:43.151Z,53.85
2019-01-27T12:08:50.019Z,50.45
2019-01-27T12:09:56.649Z,51.58
2019-01-27T12:11:05.918Z,52.45
2019-01-27T12:12:13.389Z,53.45
2019-01-27T12:13:20.228Z,52.53
2019-01-27T12:14:26.463Z,50.85
2019-01-27T12:15:33.212Z,51.37
2019-01-27T12:16:39.984Z,54.25
2019-01-27T12:17:46.543Z,55.05
2019-01-27T12:19:03.568Z,52.10
2019-01-27T12:20:10.846Z,50.90
2019-01-27T12:21:17.979Z,51.42
2019-01-27T12:22:25.127Z,55.55
2019-01-27T12:23:31.853Z,51.28
2019-01-27T12:24:38.792Z,53.33
2019-01-27T12:25:45.416Z,48.02
2019-01-27T12:26:54.387Z,52.85
2019-01-27T12:28:01.015Z,48.33
2019-01-27T12:29:07.592Z,50.23
2019-01-27T12:30:17.382Z,50.03
2019-01-27T12:31:25.101Z,45.88
2019-01-27T12:32:31.966Z,48.17
2019-01-27T12:33:41.269Z,47.85
2019-01-27T12:34:47.628Z,53.87
2019-01-27T12:35:55.000Z,45.10
2019-01-27T12:37:02.001Z,45.75
2019-01-27T12:38:08.772Z,46.18
2019-01-27T12:39:15.529Z,41.65
2019-01-27T12:40:23.721Z,43.08
2019-01-27T12:41:30.453Z,43.92
2019-01-27T12:42:40.470Z,44.18
2019-01-27T12:43:47.148Z,41.30
2019-01-27T12:44:53.739Z,43.83
2019-01-27T12:46:00.680Z,39.65
2019-01-27T12:47:07.268Z,42.65
2019-01-27T12:48:14.145Z,41.20
2019-01-27T12:49:21.014Z,40.60
2019-01-27T12:50:27.574Z,41.73
2019-01-27T12:51:34.557Z,42.93
2019-01-27T12:52:41.217Z,43.00
2019-01-27T12:53:48.238Z,42.78
2019-01-27T12:54:55.468Z,39.15
2019-01-27T12:56:02.309Z,40.85
2019-01-27T12:57:10.000Z,43.33
2019-01-27T12:58:16.599Z,40.70
2019-01-27T12:59:23.319Z,41.18
2019-01-27T13:00:50.471Z,39.50
2019-01-27T13:01:57.580Z,39.10
2019-01-27T13:03:05.215Z,38.08
2019-01-27T13:04:13.370Z,41.30
2019-01-27T13:05:20.183Z,33.55
2019-01-27T13:06:26.666Z,37.40
2019-01-27T13:07:34.015Z,37.53
2019-01-27T13:08:40.779Z,43.63
2019-01-27T13:09:47.788Z,41.35
2019-01-27T13:10:54.599Z,40.23
2019-01-27T13:12:01.484Z,43.28
2019-01-27T13:13:12.037Z,40.33
2019-01-27T13:14:16.367Z,37.42
2019-01-27T13:15:23.304Z,39.42
2019-01-27T13:16:30.208Z,39.40
2019-01-27T13:17:36.980Z,37.50
2019-01-27T13:18:43.721Z,37.45
2019-01-27T13:19:53.841Z,40.38
2019-01-27T13:20:58.795Z,38.73
2019-01-27T13:22:05.752Z,40.12
2019-01-27T13:23:12.483Z,42.13
2019-01-27T13:24:21.033Z,39.75
2019-01-27T13:25:27.526Z,40.23
2019-01-27T13:26:34.245Z,40.90
2019-01-27T13:27:41.167Z,41.77
2019-01-27T13:28:47.851Z,42.58
2019-01-27T13:29:54.504Z,45.28
2019-01-27T13:31:01.612Z,40.50
2019-01-27T13:32:08.237Z,45.48
2019-01-27T13:33:18.920Z,47.73
2019-01-27T13:34:25.722Z,41.20
2019-01-27T13:35:33.818Z,44.83
2019-01-27T13:36:40.494Z,46.40
2019-01-27T13:37:47.640Z,39.03
2019-01-27T13:38:54.450Z,43.83
2019-01-27T13:40:01.265Z,46.75
2019-01-27T13:41:08.777Z,42.83
2019-01-27T13:42:15.317Z,40.67
2019-01-27T13:43:21.860Z,40.03
2019-01-27T13:44:28.976Z,42.65
2019-01-27T13:45:37.063Z,37.23
2019-01-27T13:46:44.044Z,38.90
2019-01-27T13:47:50.819Z,41.18
2019-01-27T13:48:57.567Z,45.67
2019-01-27T13:50:04.037Z,41.73
2019-01-27T13:51:10.806Z,41.50
2019-01-27T13:52:17.210Z,41.58
2019-01-27T13:53:23.810Z,41.58
2019-01-27T13:54:30.705Z,42.62
2019-01-27T13:55:37.585Z,39.53
2019-01-27T13:56:44.296Z,46.40
2019-01-27T13:57:50.891Z,44.70
2019-01-27T13:58:57.722Z,39.92
2019-01-27T14:00:04.893Z,36.42
2019-01-27T14:01:11.768Z,36.38
2019-01-27T14:02:18.450Z,41.45
2019-01-27T14:03:25.505Z,40.40
2019-01-27T14:04:32.225Z,44.48
2019-01-27T14:05:39.167Z,40.35
2019-01-27T14:06:47.086Z,39.85
2019-01-27T14:07:54.528Z,38.92
2019-01-27T14:09:01.027Z,41.48
2019-01-27T14:10:13.292Z,39.70
2019-01-27T14:11:20.007Z,39.50
2019-01-27T14:12:27.102Z,36.90
2019-01-27T14:13:33.877Z,41.13
2019-01-27T14:14:41.047Z,42.65
2019-01-27T14:15:47.858Z,42.70
2019-01-27T14:16:54.713Z,39.83
2019-01-27T14:18:01.637Z,38.25
2019-01-27T14:19:08.333Z,39.75
2019-01-27T14:20:16.322Z,41.40
2019-01-27T14:21:22.927Z,40.10
2019-01-27T14:22:31.067Z,39.40
2019-01-27T14:23:37.631Z,40.65
2019-01-27T14:24:44.761Z,39.38
2019-01-27T14:25:51.295Z,40.30
2019-01-27T14:26:58.079Z,40.50
2019-01-27T14:28:06.581Z,42.30
2019-01-27T14:29:13.419Z,40.78
2019-01-27T14:30:22.575Z,40.95
2019-01-27T14:31:29.456Z,39.15
2019-01-27T14:32:36.075Z,38.02
2019-01-27T14:33:43.195Z,37.75
2019-01-27T14:34:49.881Z,39.00
2019-01-27T14:35:56.620Z,40.83
2019-01-27T14:37:04.150Z,37.05
2019-01-27T14:38:11.238Z,37.95
2019-01-27T14:39:18.086Z,37.55
2019-01-27T14:40:26.453Z,38.28
2019-01-27T14:41:33.043Z,39.65
2019-01-27T14:42:39.671Z,36.70
2019-01-27T14:43:46.321Z,37.38
2019-01-27T14:44:53.282Z,40.35
2019-01-27T14:46:00.172Z,37.48
2019-01-27T14:47:09.688Z,37.45
2019-01-27T14:48:16.942Z,37.53
2019-01-27T14:49:25.073Z,38.08
2019-01-27T14:50:34.056Z,38.90
2019-01-27T14:51:40.738Z,36.88
2019-01-27T14:52:47.288Z,37.70
2019-01-27T14:54:04.693Z,36.30
2019-01-27T14:55:12.714Z,35.48
2019-01-27T14:56:19.289Z,34.88
2019-01-27T14:57:25.886Z,44.33
2019-01-27T14:58:35.738Z,39.92
2019-01-27T14:59:42.710Z,67.15
2019-01-27T15:00:49.468Z,38.58
2019-01-27T15:01:57.509Z,41.10
2019-01-27T15:03:04.649Z,37.17
2019-01-27T15:04:12.257Z,35.63
2019-01-27T15:05:19.219Z,37.63
2019-01-27T15:06:25.817Z,41.63
2019-01-27T15:07:32.400Z,36.95
2019-01-27T15:08:39.150Z,37.63
2019-01-27T15:09:45.858Z,38.58
2019-01-27T15:10:52.679Z,37.40
2019-01-27T15:12:00.438Z,35.35
2019-01-27T15:13:09.030Z,36.25
2019-01-27T15:14:26.759Z,38.73
2019-01-27T15:15:34.119Z,34.95
2019-01-27T15:16:41.229Z,37.17
2019-01-27T15:17:48.675Z,36.58
2019-01-27T15:18:57.596Z,36.63
2019-01-27T15:20:06.126Z,37.70
2019-01-27T15:21:25.212Z,37.38
2019-01-27T15:22:33.555Z,36.33
2019-01-27T15:23:40.351Z,37.28
2019-01-27T15:24:47.189Z,36.53